createdAt,value
2023-02-22T00:02:11.460Z,20.08
2023-02-22T00:04:39.879Z,19.52
2023-02-22T00:07:07.111Z,19.96
2023-02-22T00:09:34.431Z,20.02
2023-02-22T00:12:01.743Z,20.23
2023-02-22T00:14:29.039Z,20.15
2023-02-22T00:16:59.617Z,20.04
2023-02-22T00:19:31.050Z,20.15
2023-02-22T00:21:58.532Z,19.84
2023-02-22T00:24:25.827Z,19.74
2023-02-22T00:26:57.128Z,20.43
2023-02-22T00:29:24.997Z,19.95
2023-02-22T00:31:52.439Z,20.20
2023-02-22T00:34:19.932Z,20.37
2023-02-22T00:36:48.329Z,20.15
2023-02-22T00:39:16.034Z,20.10
2023-02-22T00:41:43.548Z,20.37
2023-02-22T00:44:11.311Z,20.22
2023-02-22T00:46:39.821Z,20.03
2023-02-22T00:49:07.262Z,20.07
2023-02-22T00:51:34.492Z,20.25
2023-02-22T00:54:01.880Z,20.01
2023-02-22T00:56:29.231Z,20.19
2023-02-22T00:58:56.572Z,20.19
2023-02-22T01:01:24.333Z,19.82
2023-02-22T01:03:51.868Z,20.16
2023-02-22T01:06:19.647Z,19.56
2023-02-22T01:08:47.978Z,19.97
2023-02-22T01:11:17.052Z,19.74
2023-02-22T01:13:47.403Z,19.88
2023-02-22T01:16:14.643Z,19.87
2023-02-22T01:18:41.950Z,19.74
2023-02-22T01:21:09.299Z,19.94
2023-02-22T01:23:36.543Z,19.76
2023-02-22T01:26:06.136Z,20.28
2023-02-22T01:28:33.988Z,20.14
2023-02-22T01:31:03.269Z,19.24
2023-02-22T01:33:31.303Z,19.30
2023-02-22T01:36:00.173Z,19.97
2023-02-22T01:38:28.104Z,20.00
2023-02-22T01:40:55.356Z,19.86
2023-02-22T01:43:30.123Z,19.87
2023-02-22T01:46:27.029Z,20.27
2023-02-22T01:48:56.801Z,19.73
2023-02-22T01:51:30.827Z,19.57
2023-02-22T01:54:08.958Z,20.14
2023-02-22T01:56:38.359Z,20.26
2023-02-22T01:59:08.840Z,20.32
2023-02-22T02:01:38.284Z,20.20
2023-02-22T02:04:15.658Z,20.18
2023-02-22T02:06:44.349Z,20.33
2023-02-22T02:09:47.210Z,20.34
2023-02-22T02:12:16.122Z,20.20
2023-02-22T02:14:44.040Z,19.67
2023-02-22T02:17:13.236Z,19.13
2023-02-22T02:20:08.735Z,19.76
2023-02-22T02:22:47.275Z,20.10
2023-02-22T02:25:21.212Z,19.53
2023-02-22T02:28:02.724Z,19.63
2023-02-22T02:30:33.109Z,19.59
2023-02-22T02:33:04.832Z,19.79
2023-02-22T02:35:38.465Z,19.38
2023-02-22T02:38:28.416Z,19.27
2023-02-22T02:41:03.479Z,19.45
2023-02-22T02:43:43.469Z,19.92
2023-02-22T02:46:10.807Z,19.93
2023-02-22T02:48:42.312Z,20.04
2023-02-22T02:51:11.439Z,19.79
2023-02-22T02:53:40.643Z,19.45
2023-02-22T02:56:07.843Z,19.08
2023-02-22T02:58:43.937Z,19.89
2023-02-22T03:01:13.558Z,18.87
2023-02-22T03:04:01.096Z,19.25
2023-02-22T03:06:42.110Z,19.97
2023-02-22T03:09:22.088Z,19.56
2023-02-22T03:12:07.991Z,19.70
2023-02-22T03:14:41.471Z,18.99
2023-02-22T03:17:30.402Z,19.60
2023-02-22T03:19:59.568Z,19.96
2023-02-22T03:22:32.668Z,19.55
2023-02-22T03:25:08.786Z,19.72
2023-02-22T03:27:46.549Z,19.65
2023-02-22T03:30:24.159Z,19.50
2023-02-22T03:32:54.425Z,19.47
2023-02-22T03:35:24.165Z,19.41
2023-02-22T03:37:55.673Z,19.34
2023-02-22T03:40:27.134Z,19.45
2023-02-22T03:43:02.515Z,19.54
2023-02-22T03:45:31.095Z,19.61
2023-02-22T03:48:06.913Z,20.01
2023-02-22T03:50:35.921Z,19.68
2023-02-22T03:53:04.803Z,19.50
2023-02-22T03:55:35.533Z,19.71
2023-02-22T03:58:07.083Z,20.14
2023-02-22T04:00:35.199Z,19.77
2023-02-22T04:03:02.807Z,20.19
2023-02-22T04:05:30.722Z,20.14
2023-02-22T04:07:59.307Z,20.11
2023-02-22T04:10:27.906Z,20.07
2023-02-22T04:12:55.162Z,19.96
2023-02-22T04:15:23.995Z,19.98
2023-02-22T04:17:55.708Z,20.14
2023-02-22T04:20:25.731Z,20.02
2023-02-22T04:22:58.629Z,19.50
2023-02-22T04:25:26.043Z,19.83
2023-02-22T04:27:53.593Z,19.68
2023-02-22T04:30:31.822Z,19.71
2023-02-22T04:33:00.312Z,19.61
2023-02-22T04:35:27.771Z,19.49
2023-02-22T04:37:55.305Z,19.48
2023-02-22T04:40:22.838Z,19.80
2023-02-22T04:42:50.178Z,19.81
2023-02-22T04:45:17.678Z,19.42
2023-02-22T04:47:45.245Z,19.18
2023-02-22T04:50:12.855Z,19.23
2023-02-22T04:52:40.723Z,19.64
2023-02-22T04:55:08.508Z,19.54
2023-02-22T04:57:40.749Z,19.32
2023-02-22T05:00:10.478Z,19.18
2023-02-22T05:02:39.941Z,19.39
2023-02-22T05:05:07.375Z,19.16
2023-02-22T05:07:34.828Z,19.32
2023-02-22T05:10:02.919Z,19.69
2023-02-22T05:12:30.978Z,19.56
2023-02-22T05:14:58.618Z,19.20
2023-02-22T05:17:25.826Z,19.41
2023-02-22T05:19:53.363Z,19.29
2023-02-22T05:22:20.654Z,19.78
2023-02-22T05:24:47.934Z,19.66
2023-02-22T05:27:15.156Z,19.63
2023-02-22T05:29:42.532Z,19.72
2023-02-22T05:32:09.846Z,19.55
2023-02-22T05:34:37.116Z,19.40
2023-02-22T05:37:04.358Z,19.76
2023-02-22T05:39:32.020Z,19.83
2023-02-22T05:41:59.483Z,19.38
2023-02-22T05:44:26.810Z,19.39
2023-02-22T05:46:54.748Z,19.34
2023-02-22T05:49:22.089Z,19.83
2023-02-22T05:51:49.393Z,19.84
2023-02-22T05:54:16.778Z,19.87
2023-02-22T05:56:44.392Z,19.45
2023-02-22T05:59:12.093Z,19.63
2023-02-22T06:01:39.351Z,19.66
2023-02-22T06:04:06.585Z,19.84
2023-02-22T06:06:33.807Z,19.24
2023-02-22T06:09:01.366Z,19.71
2023-02-22T06:11:28.608Z,19.64
2023-02-22T06:13:55.895Z,19.53
2023-02-22T06:16:23.875Z,19.63
2023-02-22T06:18:51.406Z,19.46
2023-02-22T06:21:18.973Z,19.37
2023-02-22T06:23:46.536Z,19.60
2023-02-22T06:26:15.884Z,19.44
2023-02-22T06:28:43.146Z,19.45
2023-02-22T06:31:10.658Z,19.19
2023-02-22T06:33:38.037Z,19.55
2023-02-22T06:36:05.501Z,19.62
2023-02-22T06:38:33.333Z,19.64
2023-02-22T06:41:00.589Z,19.41
2023-02-22T06:43:27.994Z,19.91
2023-02-22T06:45:55.244Z,19.63
2023-02-22T06:48:22.553Z,19.82
2023-02-22T06:50:50.382Z,19.81
2023-02-22T06:53:42.647Z,19.64
2023-02-22T06:56:10.105Z,19.90
2023-02-22T06:58:37.294Z,20.01
2023-02-22T07:01:04.694Z,19.65
2023-02-22T07:03:32.051Z,19.70
2023-02-22T07:05:59.343Z,19.57
2023-02-22T07:08:26.528Z,19.51
2023-02-22T07:10:53.998Z,19.84
2023-02-22T07:13:21.202Z,19.91
2023-02-22T07:15:48.441Z,19.66
2023-02-22T07:18:16.435Z,19.48
2023-02-22T07:20:43.773Z,19.57
2023-02-22T07:23:13.797Z,19.46
2023-02-22T07:25:41.075Z,19.24
2023-02-22T07:28:11.019Z,19.56
2023-02-22T07:30:38.429Z,19.78
2023-02-22T07:33:07.472Z,19.66
2023-02-22T07:35:46.540Z,19.63
2023-02-22T07:38:15.062Z,19.44
2023-02-22T07:40:42.683Z,19.74
2023-02-22T07:43:20.126Z,19.58
2023-02-22T07:45:51.890Z,19.54
2023-02-22T07:48:20.487Z,19.32
2023-02-22T07:50:48.355Z,19.47
2023-02-22T07:53:20.133Z,19.92
2023-02-22T07:55:51.002Z,19.92
2023-02-22T07:58:21.696Z,19.94
2023-02-22T08:00:49.353Z,19.53
2023-02-22T08:03:18.182Z,19.44
2023-02-22T08:05:46.560Z,19.33
2023-02-22T08:08:18.169Z,19.38
2023-02-22T08:10:47.755Z,19.37
2023-02-22T08:13:15.624Z,19.52
2023-02-22T08:15:44.325Z,19.88
2023-02-22T08:18:13.860Z,19.50
2023-02-22T08:20:42.168Z,19.64
2023-02-22T08:23:10.145Z,19.93
2023-02-22T08:25:37.727Z,19.97
2023-02-22T08:28:09.496Z,20.00
2023-02-22T08:30:40.634Z,20.02
2023-02-22T08:33:16.041Z,19.32
2023-02-22T08:35:43.626Z,20.16
2023-02-22T08:38:18.930Z,19.40
2023-02-22T08:40:47.722Z,19.47
2023-02-22T08:43:15.002Z,19.86
2023-02-22T08:45:42.857Z,19.99
2023-02-22T08:48:10.242Z,19.74
2023-02-22T08:50:39.961Z,19.67
2023-02-22T08:53:08.846Z,19.67
2023-02-22T08:55:38.595Z,19.18
2023-02-22T08:58:09.555Z,19.32
2023-02-22T09:00:39.166Z,19.51
2023-02-22T09:03:07.900Z,19.58
2023-02-22T09:05:35.141Z,19.67
2023-02-22T09:08:02.966Z,19.76
2023-02-22T09:10:32.339Z,19.61
2023-02-22T09:13:01.180Z,19.60
2023-02-22T09:15:29.091Z,19.92
2023-02-22T09:17:56.469Z,19.46
2023-02-22T09:20:24.408Z,19.87
2023-02-22T09:22:51.913Z,19.71
2023-02-22T09:25:23.076Z,20.13
2023-02-22T09:27:53.981Z,19.70
2023-02-22T09:30:23.450Z,20.21
2023-02-22T09:32:55.392Z,19.66
2023-02-22T09:35:27.589Z,20.06
2023-02-22T09:37:55.821Z,19.57
2023-02-22T09:40:29.838Z,19.68
2023-02-22T09:43:04.157Z,19.59
2023-02-22T09:45:36.965Z,19.64
2023-02-22T09:48:19.432Z,19.42
2023-02-22T09:50:51.186Z,19.71
2023-02-22T09:53:29.898Z,19.32
2023-02-22T09:56:11.346Z,19.63
2023-02-22T09:58:47.454Z,19.49
2023-02-22T10:01:32.785Z,19.50
2023-02-22T10:04:00.616Z,19.61
2023-02-22T10:06:28.181Z,19.16
2023-02-22T10:08:57.611Z,19.41
2023-02-22T10:11:43.590Z,19.57
2023-02-22T10:14:25.951Z,19.20
2023-02-22T10:17:02.571Z,19.29
2023-02-22T10:19:32.844Z,19.74
2023-02-22T10:22:07.844Z,19.78
2023-02-22T10:24:53.206Z,19.52
2023-02-22T10:27:29.413Z,19.13
2023-02-22T10:30:22.154Z,19.27
2023-02-22T10:33:08.902Z,19.26
2023-02-22T10:35:37.534Z,19.40
2023-02-22T10:38:18.209Z,19.23
2023-02-22T10:40:50.834Z,19.08
2023-02-22T10:43:18.191Z,19.21
2023-02-22T10:45:45.471Z,19.31
2023-02-22T10:48:18.617Z,18.43
2023-02-22T10:50:46.491Z,19.73
2023-02-22T10:53:15.511Z,19.90
2023-02-22T10:56:01.577Z,19.86
2023-02-22T10:58:29.071Z,19.60
2023-02-22T11:00:58.549Z,19.64
2023-02-22T11:03:26.224Z,19.49
2023-02-22T11:05:53.522Z,19.64
2023-02-22T11:08:20.751Z,19.70
2023-02-22T11:10:49.117Z,18.83
2023-02-22T11:13:35.425Z,18.11
2023-02-22T11:16:18.613Z,19.32
2023-02-22T11:18:47.510Z,19.12
2023-02-22T11:21:22.809Z,18.81
2023-02-22T11:23:50.528Z,19.12
2023-02-22T11:26:20.449Z,19.25
2023-02-22T11:28:49.895Z,19.13
2023-02-22T11:31:20.678Z,19.48
2023-02-22T11:36:30.997Z,19.38
2023-02-22T11:39:00.951Z,19.06
2023-02-22T11:41:34.288Z,18.60
2023-02-22T11:44:31.043Z,19.25
2023-02-22T11:47:01.540Z,20.05
2023-02-22T11:49:34.234Z,19.73
2023-02-22T11:52:09.316Z,19.83
2023-02-22T11:54:42.631Z,19.12
2023-02-22T11:57:22.222Z,19.33
2023-02-22T11:59:58.775Z,19.43
2023-02-22T12:02:37.418Z,19.71
2023-02-22T12:05:26.449Z,19.17
2023-02-22T12:07:53.765Z,19.76
2023-02-22T12:10:26.652Z,19.81
2023-02-22T12:13:17.908Z,19.58
2023-02-22T12:15:45.361Z,19.27
2023-02-22T12:18:24.671Z,18.95
2023-02-22T12:21:01.481Z,19.02
2023-02-22T12:23:31.785Z,19.21
2023-02-22T12:26:03.415Z,18.73
2023-02-22T12:28:39.695Z,19.27
2023-02-22T12:31:07.165Z,19.17
2023-02-22T12:33:54.893Z,19.06
2023-02-22T12:36:26.003Z,19.01
2023-02-22T12:39:07.554Z,18.31
2023-02-22T12:41:40.024Z,19.26
2023-02-22T12:44:17.395Z,18.93
2023-02-22T12:46:48.017Z,19.15
2023-02-22T12:49:20.927Z,19.36
2023-02-22T12:52:20.992Z,18.79
2023-02-22T12:54:59.547Z,19.27
2023-02-22T12:57:31.292Z,18.54
2023-02-22T13:00:02.241Z,19.15
2023-02-22T13:02:31.205Z,19.58
2023-02-22T13:04:58.544Z,18.83
2023-02-22T13:07:33.291Z,18.94
2023-02-22T13:10:12.266Z,19.34
2023-02-22T13:12:58.762Z,18.92
2023-02-22T13:15:26.432Z,19.00
2023-02-22T13:18:06.262Z,19.24
2023-02-22T13:20:36.669Z,18.72
2023-02-22T13:23:22.728Z,19.53
2023-02-22T13:25:50.103Z,18.91
2023-02-22T13:28:26.195Z,18.36
2023-02-22T13:31:03.176Z,19.45
2023-02-22T13:33:50.135Z,19.22
2023-02-22T13:36:17.857Z,19.45
2023-02-22T13:38:45.248Z,18.89
2023-02-22T13:41:21.785Z,18.72
2023-02-22T13:44:04.482Z,19.26
2023-02-22T13:46:50.612Z,19.06
2023-02-22T13:49:18.533Z,19.20
2023-02-22T13:51:55.190Z,19.39
2023-02-22T13:54:22.537Z,19.07
2023-02-22T13:56:51.352Z,19.11
2023-02-22T13:59:31.652Z,18.94
2023-02-22T14:02:01.220Z,19.36
2023-02-22T14:04:28.599Z,19.57
2023-02-22T14:07:15.811Z,19.04
2023-02-22T14:09:50.682Z,19.34
2023-02-22T14:12:27.175Z,19.26
2023-02-22T14:15:22.012Z,19.12
2023-02-22T14:17:56.728Z,18.89
2023-02-22T14:20:32.592Z,19.41
2023-02-22T14:23:19.426Z,19.39
2023-02-22T14:25:46.922Z,19.36
2023-02-22T14:28:33.114Z,19.30
2023-02-22T14:31:25.775Z,19.42
2023-02-22T14:34:06.758Z,19.06
2023-02-22T14:36:40.457Z,19.44
2023-02-22T14:39:10.811Z,19.18
2023-02-22T14:41:39.240Z,19.54
2023-02-22T14:44:07.835Z,19.67
2023-02-22T14:46:40.621Z,19.65
2023-02-22T14:49:18.983Z,19.58
2023-02-22T14:51:53.473Z,19.45
2023-02-22T14:54:42.094Z,19.53
2023-02-22T14:57:16.214Z,19.69
2023-02-22T14:59:47.551Z,19.37
2023-02-22T15:02:15.129Z,19.65
2023-02-22T15:04:50.279Z,19.63
2023-02-22T15:07:28.498Z,19.81
2023-02-22T15:10:17.875Z,19.70
2023-02-22T15:13:09.097Z,19.38
2023-02-22T15:15:47.464Z,19.46
2023-02-22T15:18:22.193Z,19.81
2023-02-22T15:20:57.662Z,19.44
2023-02-22T15:23:27.416Z,19.59
2023-02-22T15:25:54.746Z,19.62
2023-02-22T15:28:23.395Z,19.30
2023-02-22T15:30:51.130Z,19.58
2023-02-22T15:33:27.253Z,19.57
2023-02-22T15:35:57.477Z,19.97
2023-02-22T15:38:31.374Z,19.60
2023-02-22T15:41:02.033Z,19.77
2023-02-22T15:43:32.328Z,19.57
2023-02-22T15:46:00.916Z,19.86
2023-02-22T15:48:32.907Z,19.52
2023-02-22T15:51:04.616Z,19.78
2023-02-22T15:53:37.421Z,19.86
2023-02-22T15:56:06.960Z,19.78
2023-02-22T15:58:34.436Z,19.63
2023-02-22T16:01:03.699Z,19.67
2023-02-22T16:03:48.875Z,19.91
2023-02-22T16:06:35.802Z,19.97
2023-02-22T16:09:13.707Z,19.86
2023-02-22T16:11:46.276Z,19.82
2023-02-22T16:14:28.526Z,19.27
2023-02-22T16:17:11.206Z,19.59
2023-02-22T16:19:40.734Z,19.31
2023-02-22T16:22:23.608Z,19.74
2023-02-22T16:24:52.747Z,19.24
2023-02-22T16:27:21.924Z,19.60
2023-02-22T16:30:23.924Z,19.25
2023-02-22T16:32:53.945Z,19.63
2023-02-22T16:35:21.296Z,19.62
2023-02-22T16:37:50.087Z,19.94
2023-02-22T16:40:25.194Z,19.68
2023-02-22T16:42:52.683Z,19.46
2023-02-22T16:45:20.737Z,20.01
2023-02-22T16:47:51.683Z,19.67
2023-02-22T16:50:19.653Z,19.65
2023-02-22T16:52:46.907Z,19.80
2023-02-22T16:55:16.186Z,19.59
2023-02-22T16:57:43.931Z,19.32
2023-02-22T17:00:15.852Z,19.59
2023-02-22T17:02:45.525Z,19.60
2023-02-22T17:05:14.971Z,19.35
2023-02-22T17:07:42.601Z,19.24
2023-02-22T17:10:16.856Z,19.19
2023-02-22T17:12:45.480Z,19.53
2023-02-22T17:15:23.919Z,19.08
2023-02-22T17:17:52.187Z,19.34
2023-02-22T17:20:31.424Z,19.34
2023-02-22T17:23:00.410Z,19.44
2023-02-22T17:25:29.907Z,19.15
2023-02-22T17:27:57.259Z,19.29
2023-02-22T17:30:26.387Z,19.30
2023-02-22T17:32:56.244Z,19.40
2023-02-22T17:35:26.585Z,19.30
2023-02-22T17:37:55.575Z,18.90
2023-02-22T17:40:29.789Z,19.32
2023-02-22T17:47:54.986Z,19.55
2023-02-22T17:50:32.933Z,19.94
2023-02-22T17:53:03.386Z,19.65
2023-02-22T17:55:31.133Z,19.18
2023-02-22T17:58:00.470Z,19.18
2023-02-22T18:00:37.299Z,19.60
2023-02-22T18:03:15.123Z,19.13
2023-02-22T18:05:50.386Z,19.10
2023-02-22T18:08:20.883Z,19.40
2023-02-22T18:10:48.544Z,19.43
2023-02-22T18:13:18.140Z,19.59
2023-02-22T18:15:53.471Z,19.30
2023-02-22T18:18:22.268Z,19.46
2023-02-22T18:20:55.830Z,19.35
2023-02-22T18:23:28.178Z,19.38
2023-02-22T18:26:09.772Z,19.14
2023-02-22T18:28:38.515Z,19.23
2023-02-22T18:31:16.747Z,19.60
2023-02-22T18:33:48.520Z,19.27
2023-02-22T18:36:17.872Z,19.54
2023-02-22T18:38:55.102Z,19.57
2023-02-22T18:41:31.214Z,19.22
2023-02-22T18:44:00.988Z,19.14
2023-02-22T18:46:30.176Z,19.47
2023-02-22T18:48:57.791Z,19.11
2023-02-22T18:51:25.841Z,19.27
2023-02-22T18:53:57.224Z,19.18
2023-02-22T18:56:39.907Z,19.38
2023-02-22T18:59:18.892Z,19.33
2023-02-22T19:01:53.154Z,19.13
2023-02-22T19:07:18.505Z,19.21
2023-02-22T19:09:50.831Z,19.38
2023-02-22T19:12:22.462Z,19.36
2023-02-22T19:14:49.858Z,18.57
2023-02-22T19:17:17.165Z,18.75
2023-02-22T19:19:44.496Z,19.33
2023-02-22T19:22:15.330Z,19.27
2023-02-22T19:24:43.757Z,19.04
2023-02-22T19:27:11.897Z,19.22
2023-02-22T19:29:42.076Z,19.10
2023-02-22T19:32:13.332Z,18.94
2023-02-22T19:34:44.016Z,18.99
2023-02-22T19:37:13.252Z,19.08
2023-02-22T19:39:42.405Z,19.00
2023-02-22T19:42:10.361Z,18.81
2023-02-22T19:44:37.872Z,18.87
2023-02-22T19:47:09.153Z,18.67
2023-02-22T19:49:37.450Z,18.77
2023-02-22T19:52:06.638Z,18.75
2023-02-22T19:54:34.227Z,18.69
2023-02-22T19:57:01.669Z,18.74
2023-02-22T19:59:29.091Z,18.93
2023-02-22T20:01:56.582Z,18.22
2023-02-22T20:04:24.545Z,18.78
2023-02-22T20:06:56.617Z,18.63
2023-02-22T20:09:29.998Z,18.83
2023-02-22T20:11:57.572Z,18.81
2023-02-22T20:14:26.206Z,18.98
2023-02-22T20:16:53.779Z,18.73
2023-02-22T20:19:22.679Z,19.02
2023-02-22T20:21:50.018Z,18.81
2023-02-22T20:24:18.601Z,18.87
2023-02-22T20:26:46.859Z,18.36
2023-02-22T20:29:14.999Z,18.32
2023-02-22T20:31:43.162Z,18.66
2023-02-22T20:34:11.632Z,18.32
2023-02-22T20:36:40.309Z,19.00
2023-02-22T20:39:08.444Z,18.98
2023-02-22T20:41:35.859Z,18.46
2023-02-22T20:44:03.674Z,18.55
2023-02-22T20:46:31.805Z,19.00
2023-02-22T20:49:01.538Z,18.29
2023-02-22T20:51:29.263Z,18.80
2023-02-22T20:54:00.394Z,18.64
2023-02-22T20:56:29.500Z,18.85
2023-02-22T20:58:57.559Z,18.20
2023-02-22T21:01:24.881Z,18.65
2023-02-22T21:03:52.533Z,18.51
2023-02-22T21:06:21.567Z,18.67
2023-02-22T21:08:50.414Z,18.88
2023-02-22T21:11:18.620Z,18.83
2023-02-22T21:13:46.454Z,18.78
2023-02-22T21:16:18.521Z,18.69
2023-02-22T21:18:45.794Z,18.72
2023-02-22T21:21:13.553Z,18.48
2023-02-22T21:23:41.405Z,18.49
2023-02-22T21:26:15.691Z,18.70
2023-02-22T21:28:51.149Z,18.95
2023-02-22T21:31:20.736Z,18.97
2023-02-22T21:33:50.067Z,19.03
2023-02-22T21:36:18.209Z,18.71
2023-02-22T21:38:46.696Z,19.11
2023-02-22T21:41:15.740Z,18.67
2023-02-22T21:43:43.877Z,18.93
2023-02-22T21:46:11.208Z,18.66
2023-02-22T21:48:39.780Z,18.74
2023-02-22T21:51:08.681Z,18.70
2023-02-22T21:53:36.540Z,18.99
2023-02-22T21:56:05.130Z,18.71
2023-02-22T21:58:32.402Z,18.97
2023-02-22T22:01:04.462Z,19.00
2023-02-22T22:03:31.943Z,19.17
2023-02-22T22:06:00.422Z,18.63
2023-02-22T22:08:31.434Z,18.96
2023-02-22T22:10:58.915Z,18.79
2023-02-22T22:13:28.154Z,18.82
2023-02-22T22:15:55.490Z,18.63
2023-02-22T22:18:22.742Z,18.49
2023-02-22T22:20:51.918Z,18.86
2023-02-22T22:23:19.606Z,18.96
2023-02-22T22:25:46.888Z,18.54
2023-02-22T22:28:14.164Z,18.72
2023-02-22T22:30:41.439Z,18.64
2023-02-22T22:33:14.894Z,18.82
2023-02-22T22:35:42.187Z,19.02
2023-02-22T22:38:09.548Z,19.01
2023-02-22T22:40:39.043Z,18.74
2023-02-22T22:43:06.589Z,18.77
2023-02-22T22:45:33.915Z,18.60
2023-02-22T22:48:01.273Z,18.89
2023-02-22T22:50:28.940Z,18.21
2023-02-22T22:52:57.067Z,18.81
2023-02-22T22:55:24.377Z,18.71
2023-02-22T22:57:54.642Z,18.45
2023-02-22T23:00:35.050Z,19.11
2023-02-22T23:03:05.626Z,17.37
2023-02-22T23:05:37.732Z,18.58
2023-02-22T23:08:05.883Z,18.97
2023-02-22T23:10:35.800Z,18.44
2023-02-22T23:13:04.359Z,18.81
2023-02-22T23:15:31.721Z,18.25
2023-02-22T23:18:01.152Z,18.78
2023-02-22T23:20:28.428Z,18.59
2023-02-22T23:22:57.967Z,18.51
2023-02-22T23:25:25.161Z,18.67
2023-02-22T23:27:53.635Z,18.31
2023-02-22T23:30:21.174Z,18.57
2023-02-22T23:32:48.444Z,18.44
2023-02-22T23:35:16.272Z,18.74
2023-02-22T23:37:45.537Z,18.18
2023-02-22T23:40:19.286Z,19.01
2023-02-22T23:42:48.220Z,19.00
2023-02-22T23:45:22.898Z,18.68
2023-02-22T23:47:57.327Z,18.41
2023-02-22T23:50:25.547Z,19.08
2023-02-22T23:52:57.161Z,18.32
2023-02-22T23:55:26.581Z,18.55
2023-02-22T23:57:59.693Z,18.68
